createdAt,value
2023-02-19T00:15:01.285Z,1218.00
2023-02-19T00:16:01.270Z,1217.00
2023-02-19T00:20:00.988Z,1214.00
2023-02-19T00:23:00.813Z,1215.00
2023-02-19T00:24:00.722Z,1207.00
2023-02-19T00:25:00.658Z,1215.00
2023-02-19T00:26:12.341Z,1220.00
2023-02-19T00:27:01.562Z,1221.00
2023-02-19T00:28:00.481Z,1220.00
2023-02-19T00:29:00.429Z,1218.00
2023-02-19T00:30:00.432Z,1223.00
2023-02-19T00:31:00.310Z,1211.00
2023-02-19T00:32:00.312Z,1219.00
2023-02-19T00:33:00.216Z,1206.00
2023-02-19T00:34:00.108Z,1218.00
2023-02-19T00:35:00.051Z,1219.00
2023-02-19T00:35:59.996Z,1221.00
2023-02-19T00:36:59.957Z,1208.00
2023-02-19T00:37:59.879Z,1214.00
2023-02-19T00:38:59.787Z,1224.00
2023-02-19T00:39:59.711Z,1217.00
2023-02-19T00:40:59.673Z,1224.00
2023-02-19T00:41:59.599Z,1213.00
2023-02-19T00:42:59.545Z,1211.00
2023-02-19T00:43:59.474Z,1215.00
2023-02-19T00:44:59.410Z,1213.00
2023-02-19T00:45:59.356Z,1204.00
2023-02-19T00:46:59.329Z,1212.00
2023-02-19T00:47:59.203Z,1201.00
2023-02-19T00:48:59.152Z,1202.00
2023-02-19T00:49:59.072Z,1203.00
2023-02-19T00:50:59.006Z,1218.00
2023-02-19T00:51:58.943Z,1217.00
2023-02-19T00:52:58.873Z,1207.00
2023-02-19T00:53:58.818Z,1197.00
2023-02-19T00:54:58.767Z,1194.00
2023-02-19T00:55:58.660Z,1212.00
2023-02-19T00:56:58.639Z,1212.00
2023-02-19T00:57:58.561Z,1211.00
2023-02-19T00:58:58.476Z,1204.00
2023-02-19T00:59:58.607Z,1201.00
2023-02-19T01:00:58.338Z,1209.00
2023-02-19T01:01:58.322Z,1205.00
2023-02-19T01:02:58.243Z,1214.00
2023-02-19T01:03:58.159Z,1210.00
2023-02-19T01:04:58.177Z,1222.00
2023-02-19T01:05:58.028Z,1203.00
2023-02-19T01:06:57.971Z,1200.00
2023-02-19T01:07:57.919Z,1200.00
2023-02-19T01:08:57.848Z,1213.00
2023-02-19T01:09:57.763Z,1206.00
2023-02-19T01:10:57.734Z,1198.00
2023-02-19T01:11:57.683Z,1208.00
2023-02-19T01:12:57.602Z,1215.00
2023-02-19T01:13:57.552Z,1196.00
2023-02-19T01:14:57.512Z,1209.00
2023-02-19T01:15:57.451Z,1206.00
2023-02-19T01:16:57.363Z,1221.00
2023-02-19T01:17:57.311Z,1215.00
2023-02-19T01:18:57.232Z,1202.00
2023-02-19T01:19:57.164Z,1216.00
2023-02-19T01:20:57.124Z,1209.00
2023-02-19T01:21:57.041Z,1215.00
2023-02-19T01:22:56.989Z,1208.00
2023-02-19T01:23:56.918Z,1223.00
2023-02-19T01:24:56.851Z,1212.00
2023-02-19T01:25:56.812Z,1217.00
2023-02-19T01:26:56.747Z,1208.00
2023-02-19T01:27:56.680Z,1224.00
2023-02-19T01:28:56.618Z,1198.00
2023-02-19T01:29:56.539Z,1195.00
2023-02-19T01:30:56.536Z,1225.00
2023-02-19T01:31:56.508Z,1214.00
2023-02-19T01:32:56.383Z,1212.00
2023-02-19T01:33:56.344Z,1207.00
2023-02-19T01:34:56.242Z,1193.00
2023-02-19T01:35:56.193Z,1198.00
2023-02-19T01:36:56.109Z,1199.00
2023-02-19T01:37:56.072Z,1223.00
2023-02-19T01:38:55.999Z,1217.00
2023-02-19T01:39:55.928Z,1203.00
2023-02-19T01:40:55.863Z,1212.00
2023-02-19T01:41:55.823Z,1199.00
2023-02-19T01:42:55.776Z,1217.00
2023-02-19T01:43:55.678Z,1205.00
2023-02-19T01:44:55.609Z,1208.00
2023-02-19T01:45:55.553Z,1193.00
2023-02-19T01:46:55.511Z,1196.00
2023-02-19T01:47:55.452Z,1198.00
2023-02-19T01:48:55.378Z,1195.00
2023-02-19T01:49:55.310Z,1189.00
2023-02-19T01:50:55.251Z,1207.00
2023-02-19T01:51:55.154Z,1212.00
2023-02-19T01:52:55.156Z,1211.00
2023-02-19T01:53:55.035Z,1205.00
2023-02-19T01:54:54.981Z,1197.00
2023-02-19T01:55:54.922Z,1220.00
2023-02-19T01:56:54.860Z,1204.00
2023-02-19T01:57:54.804Z,1206.00
2023-02-19T01:58:54.748Z,1213.00
2023-02-19T01:59:54.682Z,1195.00
2023-02-19T02:00:54.651Z,1202.00
2023-02-19T02:01:54.614Z,1198.00
2023-02-19T02:02:54.488Z,1204.00
2023-02-19T02:03:54.439Z,1195.00
2023-02-19T02:04:54.373Z,1206.00
2023-02-19T02:05:54.310Z,1201.00
2023-02-19T02:06:54.252Z,1198.00
2023-02-19T02:07:54.164Z,1209.00
2023-02-19T02:08:54.121Z,1199.00
2023-02-19T02:09:54.052Z,1201.00
2023-02-19T02:10:53.973Z,1203.00
2023-02-19T02:11:53.936Z,1197.00
2023-02-19T02:12:53.852Z,1201.00
2023-02-19T02:13:53.817Z,1187.00
2023-02-19T02:14:53.776Z,1205.00
2023-02-19T02:15:53.705Z,1201.00
2023-02-19T02:16:53.610Z,1202.00
2023-02-19T02:17:53.561Z,1183.00
2023-02-19T02:18:53.504Z,1193.00
2023-02-19T02:19:53.455Z,1199.00
2023-02-19T02:20:53.437Z,1215.00
2023-02-19T02:21:53.347Z,1202.00
2023-02-19T02:22:53.254Z,1197.00
2023-02-19T02:23:53.242Z,1202.00
2023-02-19T02:24:53.141Z,1197.00
2023-02-19T02:25:53.070Z,1200.00
2023-02-19T02:26:53.044Z,1203.00
2023-02-19T02:27:52.947Z,1189.00
2023-02-19T02:28:52.921Z,1196.00
2023-02-19T02:29:52.839Z,1209.00
2023-02-19T02:30:52.800Z,1197.00
2023-02-19T02:31:52.802Z,1208.00
2023-02-19T02:32:52.679Z,1213.00
2023-02-19T02:33:52.677Z,1196.00
2023-02-19T02:34:52.545Z,1197.00
2023-02-19T02:35:52.482Z,1197.00
2023-02-19T02:36:52.431Z,1194.00
2023-02-19T02:37:52.365Z,1192.00
2023-02-19T02:38:52.297Z,1196.00
2023-02-19T02:39:52.240Z,1192.00
2023-02-19T02:40:52.161Z,1128.00
2023-02-19T02:41:52.126Z,1090.00
2023-02-19T02:42:52.040Z,1076.00
2023-02-19T02:43:51.978Z,1057.00
2023-02-19T02:44:51.947Z,999.00
2023-02-19T02:45:51.910Z,964.00
2023-02-19T02:46:51.779Z,945.00
2023-02-19T02:47:51.744Z,889.00
2023-02-19T02:48:51.657Z,886.00
2023-02-19T02:49:51.646Z,831.00
2023-02-19T02:50:51.555Z,780.00
2023-02-19T02:51:51.509Z,739.00
2023-02-19T02:52:51.496Z,700.00
2023-02-19T02:53:51.394Z,661.00
2023-02-19T02:54:51.349Z,649.00
2023-02-19T02:55:51.281Z,635.00
2023-02-19T02:56:51.246Z,620.00
2023-02-19T04:32:45.325Z,523.00
2023-02-19T04:33:45.270Z,518.00
2023-02-19T04:34:45.200Z,524.00
2023-02-19T04:35:45.137Z,529.00
2023-02-19T04:36:45.096Z,532.00
2023-02-19T04:37:45.058Z,536.00
2023-02-19T04:38:44.973Z,535.00
2023-02-19T04:39:44.885Z,535.00
2023-02-19T04:40:44.833Z,537.00
2023-02-19T04:41:44.811Z,533.00
2023-02-19T04:42:44.731Z,540.00
2023-02-19T04:43:44.651Z,538.00
2023-02-19T04:44:44.621Z,518.00
2023-02-19T04:45:44.543Z,512.00
2023-02-19T04:46:44.514Z,502.00
2023-02-19T04:47:44.424Z,510.00
2023-02-19T04:48:44.451Z,505.00
2023-02-19T04:49:44.322Z,504.00
2023-02-19T04:50:44.264Z,500.00
2023-02-19T04:51:44.188Z,503.00
2023-02-19T04:52:44.117Z,500.00
2023-02-19T04:53:44.083Z,501.00
2023-02-19T04:54:44.007Z,502.00
2023-02-19T04:55:43.962Z,498.00
2023-02-19T04:56:43.896Z,503.00
2023-02-19T04:57:43.853Z,500.00
2023-02-19T04:58:43.779Z,507.00
2023-02-19T04:59:43.779Z,500.00
2023-02-19T05:00:43.653Z,501.00
2023-02-19T05:01:43.619Z,502.00
2023-02-19T05:02:43.548Z,506.00
2023-02-19T05:03:43.484Z,504.00
2023-02-19T05:04:43.462Z,509.00
2023-02-19T05:05:43.351Z,503.00
2023-02-19T05:06:43.351Z,512.00
2023-02-19T05:07:43.232Z,508.00
2023-02-19T05:08:43.150Z,516.00
2023-02-19T05:09:43.094Z,514.00
2023-02-19T05:10:43.024Z,513.00
2023-02-19T05:11:42.984Z,513.00
2023-02-19T05:12:42.952Z,509.00
2023-02-19T05:13:42.836Z,506.00
2023-02-19T05:14:42.778Z,514.00
2023-02-19T05:15:42.762Z,510.00
2023-02-19T05:16:42.647Z,517.00
2023-02-19T05:17:42.629Z,521.00
2023-02-19T05:18:42.544Z,523.00
2023-02-19T05:19:42.459Z,533.00
2023-02-19T05:20:42.413Z,526.00
2023-02-19T05:21:42.354Z,533.00
2023-02-19T05:22:42.309Z,542.00
2023-02-19T05:23:42.221Z,538.00
2023-02-19T05:24:42.184Z,530.00
2023-02-19T05:25:42.112Z,528.00
2023-02-19T05:26:44.557Z,526.00
2023-02-19T05:27:41.999Z,526.00
2023-02-19T05:28:41.931Z,527.00
2023-02-19T05:29:41.875Z,530.00
2023-02-19T05:30:41.811Z,536.00
2023-02-19T05:31:41.895Z,546.00
2023-02-19T05:32:41.731Z,550.00
2023-02-19T05:33:41.627Z,554.00
2023-02-19T05:34:41.570Z,560.00
2023-02-19T05:35:41.516Z,563.00
2023-02-19T05:36:41.453Z,566.00
2023-02-19T05:37:41.430Z,570.00
2023-02-19T05:38:41.337Z,568.00
2023-02-19T05:39:41.277Z,569.00
2023-02-19T05:40:41.208Z,568.00
2023-02-19T05:41:41.177Z,578.00
2023-02-19T05:42:41.109Z,579.00
2023-02-19T05:43:41.076Z,585.00
2023-02-19T05:44:40.985Z,590.00
2023-02-19T05:45:40.921Z,594.00
2023-02-19T05:46:40.918Z,594.00
2023-02-19T05:47:40.822Z,601.00
2023-02-19T05:48:40.744Z,606.00
2023-02-19T05:49:40.691Z,596.00
2023-02-19T05:50:40.619Z,589.00
2023-02-19T05:51:40.545Z,593.00
2023-02-19T05:52:40.623Z,584.00
2023-02-19T05:53:40.463Z,586.00
2023-02-19T05:54:40.367Z,590.00
2023-02-19T05:55:40.314Z,592.00
2023-02-19T05:56:40.301Z,599.00
2023-02-19T05:57:42.509Z,609.00
2023-02-19T05:58:40.166Z,618.00
2023-02-19T05:59:40.080Z,614.00
2023-02-19T06:00:39.997Z,620.00
2023-02-19T06:01:39.946Z,618.00
2023-02-19T06:02:39.924Z,624.00
2023-02-19T06:03:39.902Z,631.00
2023-02-19T06:04:39.758Z,631.00
2023-02-19T06:05:39.728Z,635.00
2023-02-19T06:06:39.650Z,631.00
2023-02-19T06:07:39.638Z,637.00
2023-02-19T06:08:39.535Z,636.00
2023-02-19T06:09:39.452Z,635.00
2023-02-19T06:10:39.419Z,639.00
2023-02-19T06:11:39.393Z,630.00
2023-02-19T06:12:39.362Z,626.00
2023-02-19T06:13:39.234Z,633.00
2023-02-19T06:14:39.184Z,630.00
2023-02-19T06:15:39.098Z,629.00
2023-02-19T06:16:39.043Z,621.00
2023-02-19T06:17:38.993Z,618.00
2023-02-19T06:18:38.950Z,625.00
2023-02-19T06:19:38.876Z,628.00
2023-02-19T06:20:38.812Z,629.00
2023-02-19T06:21:38.766Z,631.00
2023-02-19T06:22:38.708Z,627.00
2023-02-19T06:23:38.652Z,626.00
2023-02-19T06:24:38.583Z,613.00
2023-02-19T06:25:38.527Z,624.00
2023-02-19T06:26:38.438Z,621.00
2023-02-19T06:27:38.383Z,619.00
2023-02-19T06:28:38.334Z,621.00
2023-02-19T06:29:38.262Z,614.00
2023-02-19T06:30:38.208Z,601.00
2023-02-19T06:31:38.198Z,585.00
2023-02-19T06:32:38.076Z,595.00
2023-02-19T06:33:38.035Z,602.00
2023-02-19T06:34:37.931Z,602.00
2023-02-19T06:35:37.896Z,610.00
2023-02-19T06:36:37.868Z,625.00
2023-02-19T06:37:37.793Z,626.00
2023-02-19T06:38:37.748Z,628.00
2023-02-19T06:39:37.695Z,639.00
2023-02-19T06:40:37.668Z,635.00
2023-02-19T06:41:37.580Z,629.00
2023-02-19T06:42:37.572Z,627.00
2023-02-19T06:43:37.548Z,624.00
2023-02-19T06:44:37.508Z,630.00
2023-02-19T06:45:37.415Z,634.00
2023-02-19T06:46:37.559Z,634.00
2023-02-19T06:47:37.341Z,635.00
2023-02-19T06:48:37.356Z,634.00
2023-02-19T06:49:37.291Z,638.00
2023-02-19T06:50:37.246Z,647.00
2023-02-19T06:51:37.179Z,648.00
2023-02-19T06:52:37.149Z,647.00
2023-02-19T06:53:37.127Z,663.00
2023-02-19T06:54:37.084Z,662.00
2023-02-19T06:55:37.661Z,680.00
2023-02-19T06:56:37.030Z,700.00
2023-02-19T06:57:36.954Z,702.00
2023-02-19T06:58:36.926Z,728.00
2023-02-19T06:59:36.862Z,749.00
2023-02-19T07:00:37.303Z,764.00
2023-02-19T07:01:36.781Z,770.00
2023-02-19T07:02:36.754Z,785.00
2023-02-19T07:03:36.712Z,798.00
2023-02-19T07:04:36.684Z,809.00
2023-02-19T07:05:36.637Z,793.00
2023-02-19T07:06:36.594Z,804.00
2023-02-19T07:07:36.530Z,824.00
2023-02-19T07:08:36.557Z,836.00
2023-02-19T07:09:36.475Z,856.00
2023-02-19T07:10:36.456Z,856.00
2023-02-19T07:11:36.436Z,862.00
2023-02-19T07:12:36.366Z,879.00
2023-02-19T07:13:36.345Z,875.00
2023-02-19T07:14:36.280Z,883.00
2023-02-19T07:15:36.237Z,887.00
2023-02-19T07:16:36.255Z,887.00
2023-02-19T07:17:36.163Z,921.00
2023-02-19T07:18:36.139Z,916.00
2023-02-19T07:19:36.097Z,915.00
2023-02-19T07:20:36.088Z,961.00
2023-02-19T07:21:36.016Z,955.00
2023-02-19T07:22:35.991Z,964.00
2023-02-19T07:23:35.958Z,948.00
2023-02-19T07:24:35.975Z,958.00
2023-02-19T07:25:35.875Z,939.00
2023-02-19T07:26:35.894Z,921.00
2023-02-19T07:27:35.798Z,928.00
2023-02-19T07:28:35.804Z,952.00
2023-02-19T07:29:35.751Z,945.00
2023-02-19T07:30:35.780Z,942.00
2023-02-19T07:31:35.729Z,929.00
2023-02-19T07:32:35.638Z,894.00
2023-02-19T07:33:35.600Z,859.00
2023-02-19T07:34:35.574Z,880.00
2023-02-19T07:35:35.534Z,868.00
2023-02-19T07:36:35.513Z,900.00
2023-02-19T07:37:35.468Z,913.00
2023-02-19T07:38:35.429Z,904.00
2023-02-19T07:39:35.399Z,912.00
2023-02-19T07:40:35.379Z,913.00
2023-02-19T07:41:35.311Z,877.00
2023-02-19T07:42:35.285Z,904.00
2023-02-19T07:43:35.293Z,892.00
2023-02-19T07:44:35.250Z,884.00
2023-02-19T07:45:35.193Z,880.00
2023-02-19T07:46:35.173Z,873.00
2023-02-19T07:47:35.120Z,881.00
2023-02-19T07:48:35.070Z,888.00
2023-02-19T07:49:35.071Z,870.00
2023-02-19T07:50:35.017Z,836.00
2023-02-19T07:51:34.976Z,841.00
2023-02-19T07:52:34.947Z,845.00
2023-02-19T07:53:34.926Z,877.00
2023-02-19T07:54:34.890Z,874.00
2023-02-19T07:55:34.869Z,908.00
2023-02-19T07:56:34.802Z,933.00
2023-02-19T07:57:34.775Z,963.00
2023-02-19T07:58:34.748Z,974.00
2023-02-19T07:59:34.692Z,994.00
2023-02-19T08:00:34.696Z,1009.00
2023-02-19T08:01:34.667Z,1013.00
2023-02-19T08:02:34.593Z,1014.00
2023-02-19T08:03:34.574Z,1023.00
2023-02-19T08:04:34.509Z,1043.00
2023-02-19T08:05:34.516Z,1071.00
2023-02-19T08:06:34.474Z,1115.00
2023-02-19T08:07:34.454Z,1102.00
2023-02-19T08:08:34.372Z,1111.00
2023-02-19T08:09:34.342Z,1116.00
2023-02-19T08:10:34.336Z,1108.00
2023-02-19T08:11:34.291Z,1115.00
2023-02-19T08:12:34.252Z,1100.00
2023-02-19T08:13:34.222Z,1119.00
2023-02-19T08:14:34.205Z,1100.00
2023-02-19T08:15:34.165Z,1109.00
2023-02-19T08:16:43.050Z,1107.00
2023-02-19T08:17:35.104Z,1108.00
2023-02-19T08:18:34.070Z,1102.00
2023-02-19T08:19:34.598Z,1101.00
2023-02-19T08:20:33.993Z,1085.00
2023-02-19T08:21:34.514Z,1108.00
2023-02-19T08:22:33.908Z,1112.00
2023-02-19T08:23:33.864Z,1111.00
2023-02-19T08:24:33.852Z,1136.00
2023-02-19T08:25:33.797Z,1116.00
2023-02-19T08:26:33.762Z,1127.00
2023-02-19T08:27:33.711Z,1145.00
2023-02-19T08:28:33.703Z,1093.00
2023-02-19T08:29:33.654Z,1106.00
2023-02-19T08:30:33.757Z,1118.00
2023-02-19T08:31:33.728Z,1115.00
2023-02-19T08:32:33.558Z,1130.00
2023-02-19T08:33:33.531Z,1149.00
2023-02-19T08:34:33.512Z,1160.00
2023-02-19T08:35:33.482Z,1171.00
2023-02-19T08:36:33.435Z,1166.00
2023-02-19T08:38:33.326Z,1181.00
2023-02-19T08:39:33.293Z,1162.00
2023-02-19T08:40:33.302Z,1193.00
2023-02-19T08:41:33.201Z,1197.00
2023-02-19T08:42:33.170Z,1219.00
2023-02-19T08:43:33.124Z,1244.00
2023-02-19T08:44:33.057Z,1246.00
2023-02-19T08:45:33.027Z,1261.00
2023-02-19T08:46:34.434Z,1271.00
2023-02-19T08:47:32.891Z,1279.00
2023-02-19T08:48:32.837Z,1278.00
2023-02-19T08:49:32.801Z,1311.00
2023-02-19T08:50:32.726Z,1301.00
2023-02-19T08:51:32.661Z,1317.00
2023-02-19T08:52:32.590Z,1317.00
2023-02-19T08:53:32.566Z,1317.00
2023-02-19T08:54:32.551Z,1334.00
2023-02-19T08:55:32.417Z,1336.00
2023-02-19T08:56:32.385Z,1336.00
2023-02-19T08:57:32.298Z,1334.00
2023-02-19T08:58:32.244Z,1349.00
2023-02-19T08:59:32.162Z,1357.00
2023-02-19T09:00:32.159Z,1362.00
2023-02-19T09:01:32.109Z,1379.00
2023-02-19T09:02:31.965Z,1377.00
2023-02-19T09:03:31.928Z,1395.00
2023-02-19T09:04:31.859Z,1379.00
2023-02-19T09:05:31.762Z,1410.00
2023-02-19T09:06:31.722Z,1413.00
2023-02-19T09:07:31.637Z,1414.00
2023-02-19T09:08:31.543Z,1418.00
2023-02-19T09:09:31.493Z,1425.00
2023-02-19T09:10:31.423Z,1435.00
2023-02-19T09:11:31.349Z,1450.00
2023-02-19T09:12:31.262Z,1448.00
2023-02-19T09:14:31.123Z,1466.00
2023-02-19T09:15:31.098Z,1477.00
2023-02-19T09:16:30.977Z,1481.00
2023-02-19T09:17:30.917Z,1476.00
2023-02-19T09:18:30.833Z,1490.00
2023-02-19T09:19:30.758Z,1486.00
2023-02-19T09:20:30.688Z,1497.00
2023-02-19T09:21:30.609Z,1508.00
2023-02-19T09:22:30.518Z,1504.00
2023-02-19T09:23:30.473Z,1526.00
2023-02-19T09:24:30.374Z,1517.00
2023-02-19T09:25:30.293Z,1518.00
2023-02-19T09:26:30.256Z,1519.00
2023-02-19T09:27:30.149Z,1529.00
2023-02-19T09:28:30.073Z,1548.00
2023-02-19T09:29:30.019Z,1546.00
2023-02-19T09:30:29.962Z,1566.00
2023-02-19T09:31:29.973Z,1573.00
2023-02-19T09:32:29.793Z,1567.00
2023-02-19T09:33:29.694Z,1570.00
2023-02-19T09:34:29.606Z,1575.00
2023-02-19T09:35:29.558Z,1585.00
2023-02-19T09:36:29.461Z,1580.00
2023-02-19T09:37:29.370Z,1580.00
2023-02-19T09:38:29.276Z,1589.00
2023-02-19T09:39:29.211Z,1580.00
2023-02-19T09:40:29.125Z,1589.00
2023-02-19T09:41:29.098Z,1592.00
2023-02-19T09:42:28.990Z,1593.00
2023-02-19T09:43:28.912Z,1581.00
2023-02-19T09:44:28.810Z,1616.00
2023-02-19T09:45:28.738Z,1627.00
2023-02-19T09:46:28.771Z,1601.00
2023-02-19T09:47:28.565Z,1597.00
2023-02-19T09:48:28.517Z,1603.00
2023-02-19T09:49:28.419Z,1620.00
2023-02-19T09:50:28.325Z,1632.00
2023-02-19T09:51:28.241Z,1634.00
2023-02-19T09:52:28.182Z,1625.00
2023-02-19T09:53:28.096Z,1645.00
2023-02-19T09:54:27.995Z,1634.00
2023-02-19T09:55:27.921Z,1635.00
2023-02-19T09:56:27.848Z,1657.00
2023-02-19T09:57:27.763Z,1645.00
2023-02-19T09:58:27.675Z,1650.00
2023-02-19T09:59:27.602Z,1650.00
2023-02-19T10:00:27.529Z,1657.00
2023-02-19T10:01:29.193Z,1661.00
2023-02-19T10:02:27.391Z,1658.00
2023-02-19T10:03:27.248Z,1656.00
2023-02-19T10:04:27.186Z,1682.00
2023-02-19T10:05:27.126Z,1667.00
2023-02-19T10:06:27.005Z,1667.00
2023-02-19T10:07:26.939Z,1676.00
2023-02-19T10:08:26.837Z,1675.00
2023-02-19T10:09:26.809Z,1671.00
2023-02-19T10:10:26.650Z,1682.00
2023-02-19T10:11:26.614Z,1692.00
2023-02-19T10:12:26.520Z,1686.00
2023-02-19T10:13:26.414Z,1685.00
2023-02-19T10:14:26.303Z,1695.00
2023-02-19T10:15:26.239Z,1696.00
2023-02-19T10:16:26.134Z,1692.00
2023-02-19T10:17:26.074Z,1694.00
2023-02-19T10:18:25.997Z,1696.00
2023-02-19T10:19:25.889Z,1703.00
2023-02-19T10:20:25.812Z,1712.00
2023-02-19T10:21:25.743Z,1718.00
2023-02-19T10:22:25.655Z,1711.00
2023-02-19T10:23:25.572Z,1712.00
2023-02-19T10:24:25.437Z,1717.00
2023-02-19T10:25:25.408Z,1723.00
2023-02-19T10:26:25.280Z,1725.00
2023-02-19T10:27:25.186Z,1744.00
2023-02-19T10:28:25.094Z,1736.00
2023-02-19T10:29:25.046Z,1757.00
2023-02-19T10:30:24.964Z,1728.00
2023-02-19T10:31:24.929Z,1737.00
2023-02-19T10:32:24.771Z,1738.00
2023-02-19T10:33:24.673Z,1737.00
2023-02-19T10:34:24.573Z,1747.00
2023-02-19T10:35:24.488Z,1746.00
2023-02-19T10:36:24.417Z,1757.00
2023-02-19T10:37:24.360Z,1746.00
2023-02-19T10:38:24.203Z,1748.00
2023-02-19T10:39:24.133Z,1752.00
2023-02-19T10:40:24.040Z,1752.00
2023-02-19T10:41:23.976Z,1772.00
2023-02-19T10:42:23.859Z,1772.00
2023-02-19T10:43:23.782Z,1764.00
2023-02-19T10:44:23.668Z,1759.00
2023-02-19T10:45:23.579Z,1768.00
2023-02-19T10:46:23.540Z,1762.00
2023-02-19T10:47:23.414Z,1764.00
2023-02-19T10:48:23.308Z,1766.00
2023-02-19T10:49:23.222Z,1769.00
2023-02-19T10:50:23.106Z,1773.00
2023-02-19T10:51:23.029Z,1766.00
2023-02-19T10:52:22.923Z,1768.00
2023-02-19T10:53:22.855Z,1769.00
2023-02-19T10:54:22.728Z,1772.00
2023-02-19T10:55:22.634Z,1774.00
2023-02-19T10:56:22.535Z,1783.00
2023-02-19T10:57:22.436Z,1783.00
2023-02-19T10:58:22.356Z,1797.00
2023-02-19T10:59:22.252Z,1796.00
2023-02-19T11:00:22.168Z,1788.00
2023-02-19T11:01:22.113Z,1799.00
2023-02-19T11:02:21.969Z,1790.00
2023-02-19T11:03:21.920Z,1799.00
2023-02-19T11:04:21.826Z,1798.00
2023-02-19T11:05:21.691Z,1812.00
2023-02-19T11:06:21.590Z,1807.00
2023-02-19T11:07:21.506Z,1817.00
2023-02-19T11:08:21.396Z,1809.00
2023-02-19T11:09:21.294Z,1805.00
2023-02-19T11:10:21.208Z,1824.00
2023-02-19T11:11:21.100Z,1820.00
2023-02-19T11:12:21.009Z,1832.00
2023-02-19T11:13:20.960Z,1821.00
2023-02-19T11:14:20.814Z,1851.00
2023-02-19T11:15:20.724Z,1828.00
2023-02-19T11:16:20.653Z,1833.00
2023-02-19T11:17:20.517Z,1839.00
2023-02-19T11:18:20.437Z,1835.00
2023-02-19T11:19:20.340Z,1834.00
2023-02-19T11:20:20.239Z,1846.00
2023-02-19T11:21:20.144Z,1832.00
2023-02-19T11:22:20.044Z,1865.00
2023-02-19T11:23:19.931Z,1833.00
2023-02-19T11:24:19.890Z,1838.00
2023-02-19T11:25:19.750Z,1843.00
2023-02-19T11:26:19.639Z,1841.00
2023-02-19T11:27:19.529Z,1834.00
2023-02-19T11:28:19.439Z,1846.00
2023-02-19T11:29:19.328Z,1825.00
2023-02-19T11:30:19.298Z,1845.00
2023-02-19T11:31:19.314Z,1843.00
2023-02-19T11:32:19.124Z,1828.00
2023-02-19T11:33:18.938Z,1839.00
2023-02-19T11:34:18.845Z,1848.00
2023-02-19T11:35:18.764Z,1861.00
2023-02-19T11:36:18.665Z,1839.00
2023-02-19T11:37:18.548Z,1841.00
2023-02-19T11:38:18.437Z,1822.00
2023-02-19T11:39:18.333Z,1848.00
2023-02-19T11:40:18.238Z,1825.00
2023-02-19T11:41:18.140Z,1832.00
2023-02-19T11:42:18.033Z,1798.00
2023-02-19T11:43:17.933Z,1829.00
2023-02-19T11:44:17.887Z,1833.00
2023-02-19T11:45:17.740Z,1856.00
2023-02-19T11:46:17.761Z,1818.00
2023-02-19T11:47:17.544Z,1805.00
2023-02-19T11:48:17.451Z,1837.00
2023-02-19T11:49:17.356Z,1808.00
2023-02-19T11:50:17.249Z,1832.00
2023-02-19T11:51:17.124Z,1840.00
2023-02-19T11:52:17.020Z,1842.00
2023-02-19T11:53:16.950Z,1808.00
2023-02-19T11:54:16.804Z,1835.00
2023-02-19T11:55:16.706Z,1827.00
2023-02-19T11:56:16.589Z,1834.00
2023-02-19T11:57:16.516Z,1788.00
2023-02-19T11:58:16.389Z,1819.00
2023-02-19T11:59:16.316Z,1806.00
2023-02-19T12:00:16.237Z,1790.00
2023-02-19T12:01:16.105Z,1835.00
2023-02-19T12:02:16.025Z,1816.00
2023-02-19T12:03:15.900Z,1850.00
2023-02-19T12:04:15.814Z,1839.00
2023-02-19T12:05:15.735Z,1830.00
2023-02-19T12:06:15.600Z,1855.00
2023-02-19T12:07:16.891Z,1840.00
2023-02-19T12:08:15.382Z,1799.00
2023-02-19T12:09:15.273Z,1852.00
2023-02-19T12:10:15.224Z,1833.00
2023-02-19T12:11:15.093Z,1846.00
2023-02-19T12:12:15.742Z,1845.00
2023-02-19T12:13:14.876Z,1813.00
2023-02-19T12:14:14.765Z,1835.00
2023-02-19T12:15:14.670Z,1794.00
2023-02-19T12:16:14.601Z,1787.00
2023-02-19T12:17:14.439Z,1843.00
2023-02-19T12:18:14.363Z,1858.00
2023-02-19T12:19:14.252Z,1807.00
2023-02-19T12:20:14.178Z,1819.00
2023-02-19T12:21:14.078Z,1792.00
2023-02-19T12:22:13.976Z,1810.00
2023-02-19T12:23:13.852Z,1825.00
2023-02-19T12:24:13.748Z,1818.00
2023-02-19T12:25:13.658Z,1839.00
2023-02-19T12:26:13.617Z,1795.00
2023-02-19T12:27:13.466Z,1799.00
2023-02-19T12:28:13.320Z,1790.00
2023-02-19T12:29:13.259Z,1828.00
2023-02-19T12:30:13.263Z,1823.00
2023-02-19T12:31:13.132Z,1810.00
2023-02-19T12:32:13.028Z,1788.00
2023-02-19T12:33:12.822Z,1804.00
2023-02-19T12:34:12.740Z,1808.00
2023-02-19T12:35:12.645Z,1811.00
2023-02-19T12:36:12.960Z,1843.00
2023-02-19T12:37:12.427Z,1782.00
2023-02-19T12:38:12.341Z,1793.00
2023-02-19T12:39:12.212Z,1792.00
2023-02-19T12:40:12.141Z,1786.00
2023-02-19T12:41:12.006Z,1798.00
2023-02-19T12:42:11.907Z,1795.00
2023-02-19T12:43:11.826Z,1791.00
2023-02-19T12:44:11.744Z,1798.00
2023-02-19T12:45:11.612Z,1799.00
2023-02-19T12:46:11.856Z,1791.00
2023-02-19T12:47:11.385Z,1783.00
2023-02-19T12:48:11.288Z,1790.00
2023-02-19T12:49:11.184Z,1790.00
2023-02-19T12:50:11.157Z,1799.00
2023-02-19T12:51:10.983Z,1800.00
2023-02-19T12:52:10.858Z,1799.00
2023-02-19T12:53:10.794Z,1805.00
2023-02-19T12:54:10.696Z,1795.00
2023-02-19T12:55:10.572Z,1795.00
2023-02-19T12:56:10.655Z,1801.00
2023-02-19T12:57:10.363Z,1797.00
2023-02-19T12:58:10.382Z,1798.00
2023-02-19T12:59:10.182Z,1790.00
2023-02-19T13:00:10.046Z,1804.00
2023-02-19T13:01:09.959Z,1800.00
2023-02-19T13:02:09.850Z,1797.00
2023-02-19T13:03:09.740Z,1803.00
2023-02-19T13:04:09.623Z,1794.00
2023-02-19T13:05:09.533Z,1782.00
2023-02-19T13:06:11.392Z,1789.00
2023-02-19T13:07:09.327Z,1790.00
2023-02-19T13:08:09.204Z,1805.00
2023-02-19T13:09:09.139Z,1807.00
2023-02-19T13:10:09.012Z,1798.00
2023-02-19T13:11:09.192Z,1789.00
2023-02-19T13:12:08.774Z,1788.00
2023-02-19T13:13:08.677Z,1797.00
2023-02-19T13:14:08.565Z,1786.00
2023-02-19T13:15:08.451Z,1782.00
2023-02-19T13:16:08.393Z,1793.00
2023-02-19T13:17:08.243Z,1774.00
2023-02-19T13:18:08.164Z,1787.00
2023-02-19T13:19:08.012Z,1771.00
2023-02-19T13:20:07.946Z,1777.00
2023-02-19T13:21:07.824Z,1788.00
2023-02-19T13:22:07.703Z,1779.00
2023-02-19T13:23:07.611Z,1784.00
2023-02-19T13:24:07.469Z,1781.00
2023-02-19T13:25:07.388Z,1790.00
2023-02-19T13:26:07.251Z,1774.00
2023-02-19T13:27:07.133Z,1775.00
2023-02-19T13:28:07.034Z,1780.00
2023-02-19T13:29:06.951Z,1783.00
2023-02-19T13:30:06.848Z,1762.00
2023-02-19T13:31:06.799Z,1782.00
2023-02-19T13:32:06.672Z,1772.00
2023-02-19T13:33:06.451Z,1774.00
2023-02-19T13:34:06.344Z,1776.00
2023-02-19T13:35:06.224Z,1776.00
2023-02-19T13:36:06.177Z,1783.00
2023-02-19T13:37:05.988Z,1791.00
2023-02-19T13:39:05.816Z,1799.00
2023-02-19T13:40:05.682Z,1799.00
2023-02-19T13:41:05.603Z,1785.00
2023-02-19T13:42:05.454Z,1784.00
2023-02-19T13:43:05.337Z,1796.00
2023-02-19T13:44:05.224Z,1779.00
2023-02-19T13:45:05.127Z,1786.00
2023-02-19T13:46:05.025Z,1771.00
2023-02-19T13:47:04.887Z,1782.00
2023-02-19T13:48:04.750Z,1795.00
2023-02-19T13:49:04.653Z,1759.00
2023-02-19T13:50:04.583Z,1763.00
2023-02-19T13:51:04.437Z,1769.00
2023-02-19T13:52:04.330Z,1776.00
2023-02-19T13:53:04.201Z,1765.00
2023-02-19T13:54:04.097Z,1768.00
2023-02-19T13:55:03.998Z,1764.00
2023-02-19T13:56:03.851Z,1765.00
2023-02-19T13:57:03.763Z,1778.00
2023-02-19T13:58:03.631Z,1757.00
2023-02-19T13:59:03.528Z,1764.00
2023-02-19T14:00:03.396Z,1767.00
2023-02-19T14:01:03.448Z,1749.00
2023-02-19T14:02:03.220Z,1758.00
2023-02-19T14:03:03.077Z,1761.00
2023-02-19T14:04:02.967Z,1772.00
2023-02-19T14:05:02.866Z,1761.00
2023-02-19T14:06:02.780Z,1751.00
2023-02-19T14:07:02.661Z,1750.00
2023-02-19T14:08:02.528Z,1756.00
2023-02-19T14:09:02.422Z,1753.00